Time;durP1;ratioP1;P1;durP2;ratioP2;P2;SDS_P1;SDS_P2;PMS_P1;PMS_P2;Temp;Humidity;BMP_temperature;BMP_pressure;BME280_temperature;BME280_humidity;BME280_pressure;Samples;Min_cycle;Max_cycle;Signal;HPM_P1;HPM_P2
2022/11/23 00:01:23;;;;;;;43.08;22.50;;;3.90;99.90;;;;;;5003578;28;20033;-67
2022/11/23 00:03:54;;;;;;;44.28;24.48;;;3.90;99.90;;;;;;5001433;28;20030;-67
2022/11/23 00:06:21;;;;;;;41.15;24.73;;;3.90;99.90;;;;;;5003849;28;20167;-67
2022/11/23 00:08:48;;;;;;;44.45;23.02;;;3.90;99.90;;;;;;5003835;28;20029;-67
2022/11/23 00:11:14;;;;;;;42.15;24.45;;;3.90;99.90;;;;;;5002486;28;20039;-67
2022/11/23 00:13:41;;;;;;;47.53;23.08;;;3.90;99.90;;;;;;5002541;28;20037;-66
2022/11/23 00:16:15;;;;;;;38.50;22.08;;;3.90;99.90;;;;;;5007379;28;20026;-67
2022/11/23 00:18:43;;;;;;;40.42;23.95;;;3.90;99.90;;;;;;5002230;28;20026;-67
2022/11/23 00:21:13;;;;;;;43.75;23.25;;;3.90;99.90;;;;;;5003712;28;20045;-67
2022/11/23 00:23:39;;;;;;;39.78;23.00;;;3.90;99.90;;;;;;5004307;28;20026;-67
2022/11/23 00:26:06;;;;;;;46.67;24.20;;;3.90;99.90;;;;;;5004265;28;20030;-68
2022/11/23 00:28:32;;;;;;;43.22;22.50;;;3.80;99.90;;;;;;5001290;28;20038;-68
2022/11/23 00:30:57;;;;;;;47.95;24.45;;;3.90;99.90;;;;;;5003516;28;20033;-68
2022/11/23 00:33:24;;;;;;;46.00;24.27;;;3.90;99.90;;;;;;5003472;28;20037;-68
2022/11/23 00:36:10;;;;;;;42.58;23.80;;;3.90;99.90;;;;;;5001446;28;20153;-68
2022/11/23 00:38:37;;;;;;;39.50;22.55;;;3.90;99.90;;;;;;5001561;28;20220;-67
2022/11/23 00:41:05;;;;;;;39.67;22.17;;;3.90;99.90;;;;;;5003470;28;21033;-67
2022/11/23 00:43:31;;;;;;;41.00;23.20;;;3.90;99.90;;;;;;5003455;28;20038;-67
2022/11/23 00:46:14;;;;;;;39.15;22.75;;;3.80;99.90;;;;;;5001949;28;20540;-67
2022/11/23 00:48:40;;;;;;;42.47;21.92;;;3.90;99.90;;;;;;5002699;28;20591;-67
2022/11/23 00:51:07;;;;;;;40.13;23.55;;;3.90;99.90;;;;;;5002240;28;20072;-67
2022/11/23 00:53:35;;;;;;;44.85;23.98;;;3.90;99.90;;;;;;5001974;28;20057;-67
2022/11/23 00:56:01;;;;;;;44.65;24.52;;;3.90;99.90;;;;;;5002896;28;20045;-67
2022/11/23 00:58:27;;;;;;;40.28;23.35;;;3.90;99.90;;;;;;5002452;28;20485;-69
2022/11/23 01:01:03;;;;;;;43.17;23.70;;;3.90;99.90;;;;;;5002114;28;20033;-69
2022/11/23 01:03:30;;;;;;;43.35;23.05;;;3.90;99.90;;;;;;5004285;28;20579;-69
2022/11/23 01:06:01;;;;;;;42.15;23.10;;;3.90;99.90;;;;;;5002252;28;20044;-69
2022/11/23 01:08:28;;;;;;;40.88;22.50;;;3.90;99.90;;;;;;5003019;28;20110;-69
2022/11/23 01:11:01;;;;;;;38.25;21.60;;;3.90;99.90;;;;;;5006211;28;20055;-69
2022/11/23 01:13:27;;;;;;;38.15;21.58;;;3.90;99.90;;;;;;5009315;28;20496;-69
2022/11/23 01:15:53;;;;;;;38.20;21.65;;;3.90;99.90;;;;;;5003319;28;20084;-69
2022/11/23 01:18:19;;;;;;;43.13;22.38;;;3.90;99.90;;;;;;5001610;28;20155;-68
2022/11/23 01:20:44;;;;;;;41.75;22.55;;;3.90;99.90;;;;;;5003243;28;20491;-69
2022/11/23 01:23:10;;;;;;;43.28;22.30;;;3.90;99.90;;;;;;5001287;28;20589;-69
2022/11/23 01:25:36;;;;;;;38.53;22.25;;;3.90;99.90;;;;;;5002632;28;20057;-68
2022/11/23 01:28:02;;;;;;;44.13;23.55;;;3.90;99.90;;;;;;5000927;28;20088;-68
2022/11/23 01:30:28;;;;;;;43.83;23.88;;;3.90;99.90;;;;;;5002802;28;20034;-68
2022/11/23 01:32:53;;;;;;;46.13;22.85;;;3.90;99.90;;;;;;5003458;28;20144;-68
2022/11/23 01:35:19;;;;;;;41.33;22.20;;;3.90;99.90;;;;;;5003412;28;20038;-68
2022/11/23 01:37:45;;;;;;;40.45;22.83;;;3.90;99.90;;;;;;5001785;28;20057;-68
2022/11/23 01:40:11;;;;;;;44.53;25.40;;;3.90;99.90;;;;;;5000503;28;20038;-68
2022/11/23 01:42:51;;;;;;;40.25;22.65;;;3.90;99.90;;;;;;5002248;28;20030;-68
2022/11/23 01:45:37;;;;;;;38.58;20.80;;;3.90;99.90;;;;;;5002246;28;20056;-67
2022/11/23 01:48:08;;;;;;;36.20;21.42;;;4.00;99.90;;;;;;5001654;28;20030;-67
2022/11/23 01:50:34;;;;;;;44.15;22.90;;;4.00;99.90;;;;;;5002814;28;20125;-67
2022/11/23 01:53:01;;;;;;;44.40;22.90;;;4.00;99.90;;;;;;5003287;28;20060;-67
2022/11/23 01:55:27;;;;;;;39.75;20.95;;;4.10;99.90;;;;;;5002023;28;20038;-67
2022/11/23 01:57:53;;;;;;;39.38;22.17;;;4.10;99.90;;;;;;5001482;28;20037;-68
2022/11/23 02:00:19;;;;;;;38.60;22.92;;;4.10;99.90;;;;;;5002077;28;20021;-68
2022/11/23 02:02:57;;;;;;;38.63;22.80;;;4.10;99.90;;;;;;4999278;28;20375;-67
2022/11/23 02:05:31;;;;;;;38.40;21.50;;;4.20;99.90;;;;;;5003444;28;20034;-66
2022/11/23 02:07:59;;;;;;;42.40;22.30;;;4.20;99.90;;;;;;5003647;28;20041;-66
2022/11/23 02:10:25;;;;;;;36.35;21.48;;;4.20;99.90;;;;;;5005419;28;20111;-66
2022/11/23 02:12:52;;;;;;;38.17;21.90;;;4.20;99.90;;;;;;5000517;28;20033;-67
2022/11/23 02:15:17;;;;;;;38.17;22.05;;;4.30;99.90;;;;;;5000869;28;20069;-67
2022/11/23 02:17:43;;;;;;;41.33;22.15;;;4.20;99.90;;;;;;5002165;28;20430;-67
2022/11/23 02:20:11;;;;;;;38.05;22.08;;;4.30;99.90;;;;;;5000024;28;20044;-67
2022/11/23 02:22:48;;;;;;;39.33;21.33;;;4.30;99.90;;;;;;5001161;28;20033;-67
2022/11/23 02:25:39;;;;;;;38.25;21.65;;;4.30;99.90;;;;;;5002194;28;20029;-67
2022/11/23 02:28:06;;;;;;;37.00;20.23;;;4.30;99.90;;;;;;5000554;28;20034;-67
2022/11/23 02:30:35;;;;;;;40.45;21.65;;;4.30;99.90;;;;;;5001842;28;20095;-68
2022/11/23 02:33:05;;;;;;;38.92;22.80;;;4.40;99.90;;;;;;5001396;28;20061;-68
2022/11/23 02:35:32;;;;;;;40.50;21.95;;;4.40;99.90;;;;;;5002843;28;20112;-68
2022/11/23 02:38:01;;;;;;;44.05;22.60;;;4.40;99.90;;;;;;5000463;28;20343;-68
2022/11/23 02:40:35;;;;;;;38.17;21.80;;;4.40;99.90;;;;;;5000524;28;20030;-68
2022/11/23 02:43:02;;;;;;;37.57;22.27;;;4.40;99.90;;;;;;5000686;28;20103;-68
2022/11/23 02:45:37;;;;;;;40.22;22.30;;;4.50;99.90;;;;;;5001014;28;20357;-68
2022/11/23 02:48:03;;;;;;;37.58;21.83;;;4.40;99.90;;;;;;5001195;28;20053;-68
2022/11/23 02:50:29;;;;;;;36.53;21.73;;;4.40;99.90;;;;;;5000729;28;20038;-68
2022/11/23 02:52:54;;;;;;;38.22;21.50;;;4.50;99.90;;;;;;4999776;28;20391;-68
2022/11/23 02:55:20;;;;;;;37.88;21.30;;;4.50;99.90;;;;;;5002464;28;20033;-68
2022/11/23 02:57:46;;;;;;;36.45;22.35;;;4.50;99.90;;;;;;5000857;28;20017;-68
2022/11/23 03:00:13;;;;;;;37.47;21.33;;;4.50;99.90;;;;;;5002947;28;20034;-69
2022/11/23 03:02:39;;;;;;;36.20;19.08;;;4.50;99.90;;;;;;5001455;28;20032;-69
2022/11/23 03:05:06;;;;;;;36.38;20.27;;;4.50;99.90;;;;;;4999106;28;20060;-68
2022/11/23 03:07:31;;;;;;;37.80;20.70;;;4.50;99.90;;;;;;5002518;28;20026;-68
2022/11/23 03:09:57;;;;;;;36.50;20.00;;;4.50;99.90;;;;;;5003786;28;20417;-68
2022/11/23 03:12:22;;;;;;;34.63;20.75;;;4.50;99.90;;;;;;5006708;28;20045;-68
2022/11/23 03:14:48;;;;;;;37.80;21.13;;;4.50;99.90;;;;;;5000912;28;20040;-68
2022/11/23 03:17:14;;;;;;;34.28;20.92;;;4.50;99.90;;;;;;5001505;28;20022;-68
2022/11/23 03:19:39;;;;;;;34.65;19.80;;;4.50;99.90;;;;;;5000614;28;20443;-69
2022/11/23 03:22:05;;;;;;;37.28;20.38;;;4.50;99.90;;;;;;5001631;28;20040;-69
2022/11/23 03:24:31;;;;;;;35.72;21.60;;;4.40;99.90;;;;;;4998652;28;20065;-69
2022/11/23 03:26:57;;;;;;;32.05;19.05;;;4.40;99.90;;;;;;5003591;28;20045;-69
2022/11/23 03:29:25;;;;;;;34.95;20.08;;;4.40;99.90;;;;;;5003298;28;20046;-68
2022/11/23 03:31:51;;;;;;;36.63;21.67;;;4.40;99.90;;;;;;5004499;28;20810;-68
2022/11/23 03:34:17;;;;;;;36.33;20.60;;;4.40;99.90;;;;;;5005601;28;20029;-68
2022/11/23 03:36:43;;;;;;;37.22;20.92;;;4.30;99.90;;;;;;5004739;28;20449;-68
2022/11/23 03:39:08;;;;;;;36.03;21.33;;;4.30;99.90;;;;;;5003931;28;20034;-68
2022/11/23 03:41:34;;;;;;;39.00;21.83;;;4.30;99.90;;;;;;5003701;28;20679;-66
2022/11/23 03:44:00;;;;;;;40.80;22.58;;;4.20;99.90;;;;;;5004122;28;20045;-68
2022/11/23 03:46:25;;;;;;;35.00;19.65;;;4.20;99.90;;;;;;5004484;28;20378;-69
2022/11/23 03:48:51;;;;;;;39.92;20.63;;;4.30;99.90;;;;;;5003140;28;20100;-67
2022/11/23 03:51:17;;;;;;;31.85;18.73;;;4.20;99.90;;;;;;5003250;28;20034;-68
2022/11/23 03:53:42;;;;;;;33.63;20.65;;;4.20;99.90;;;;;;4994572;28;20044;-67
2022/11/23 03:56:09;;;;;;;34.88;20.90;;;4.20;99.90;;;;;;5007156;28;20061;-67
2022/11/23 03:58:35;;;;;;;39.78;22.25;;;4.20;99.90;;;;;;5004739;28;20026;-66
2022/11/23 04:01:01;;;;;;;36.00;20.42;;;4.20;99.90;;;;;;5004932;28;20022;-66
2022/11/23 04:03:27;;;;;;;35.33;20.05;;;4.20;99.90;;;;;;5003073;28;20033;-67
2022/11/23 04:05:52;;;;;;;36.83;19.05;;;4.10;99.90;;;;;;5004747;28;20029;-67
2022/11/23 04:08:18;;;;;;;34.42;20.63;;;4.10;99.90;;;;;;5003195;28;20033;-67
2022/11/23 04:10:44;;;;;;;36.95;21.52;;;4.10;99.90;;;;;;5021696;28;20402;-67
2022/11/23 04:13:09;;;;;;;33.08;19.50;;;4.10;99.90;;;;;;5013028;28;20040;-67
2022/11/23 04:15:35;;;;;;;36.72;21.50;;;4.10;99.90;;;;;;5003949;28;20134;-67
2022/11/23 04:18:00;;;;;;;38.58;21.13;;;4.10;99.90;;;;;;5002680;28;20373;-68
2022/11/23 04:20:26;;;;;;;33.08;19.83;;;4.00;99.90;;;;;;5004261;28;20068;-68
2022/11/23 04:22:52;;;;;;;32.25;19.90;;;4.00;99.90;;;;;;5001813;28;20172;-68
2022/11/23 04:25:18;;;;;;;36.00;21.38;;;4.00;99.90;;;;;;5002323;28;20116;-68
2022/11/23 04:27:44;;;;;;;36.15;20.42;;;4.00;99.90;;;;;;5004516;28;20068;-68
2022/11/23 04:30:10;;;;;;;35.63;20.65;;;4.00;99.90;;;;;;5001916;28;20045;-68
2022/11/23 04:32:36;;;;;;;38.35;20.17;;;4.00;99.90;;;;;;5003534;28;20029;-68
2022/11/23 04:35:02;;;;;;;33.50;19.13;;;4.00;99.90;;;;;;5002381;28;20057;-68
2022/11/23 04:37:28;;;;;;;34.90;19.15;;;3.90;99.90;;;;;;5002050;28;20589;-68
2022/11/23 04:39:53;;;;;;;38.40;20.98;;;3.90;99.90;;;;;;5001636;28;20045;-68
2022/11/23 04:42:19;;;;;;;38.17;21.52;;;3.90;99.90;;;;;;5002924;28;20034;-67
2022/11/23 04:44:45;;;;;;;33.08;18.23;;;3.90;99.90;;;;;;5001285;28;20089;-67
2022/11/23 04:47:11;;;;;;;35.83;19.42;;;3.90;99.90;;;;;;5002485;28;20579;-67
2022/11/23 04:49:37;;;;;;;31.08;18.45;;;3.90;99.90;;;;;;5002166;28;20781;-67
2022/11/23 04:52:03;;;;;;;39.85;20.63;;;3.90;99.90;;;;;;5002563;28;20049;-67
2022/11/23 04:54:29;;;;;;;33.80;19.23;;;3.90;99.90;;;;;;5002166;28;20029;-67
2022/11/23 04:56:56;;;;;;;34.58;19.30;;;3.90;99.90;;;;;;5002643;28;20043;-67
2022/11/23 04:59:21;;;;;;;34.75;20.38;;;3.90;99.90;;;;;;5002472;28;20109;-67
2022/11/23 05:01:48;;;;;;;35.67;19.58;;;3.90;99.90;;;;;;5003203;28;20558;-66
2022/11/23 05:04:14;;;;;;;38.55;20.92;;;3.90;99.90;;;;;;5001790;28;20048;-66
2022/11/23 05:06:39;;;;;;;41.42;22.45;;;3.90;99.90;;;;;;5003926;28;20033;-66
2022/11/23 05:09:05;;;;;;;38.65;20.40;;;3.80;99.90;;;;;;5002549;28;20112;-66
2022/11/23 05:11:31;;;;;;;35.45;20.50;;;3.80;99.90;;;;;;5003382;28;20101;-67
2022/11/23 05:13:57;;;;;;;31.67;20.50;;;3.80;99.90;;;;;;5004037;28;20038;-67
2022/11/23 05:16:22;;;;;;;34.50;20.95;;;3.80;99.90;;;;;;5001694;28;20045;-67
2022/11/23 05:18:48;;;;;;;37.50;20.70;;;3.80;99.90;;;;;;5000852;28;21408;-68
2022/11/23 05:21:13;;;;;;;37.05;20.55;;;3.80;99.90;;;;;;5002241;28;20034;-66
2022/11/23 05:23:39;;;;;;;36.00;21.73;;;3.80;99.90;;;;;;5000431;28;20039;-67
2022/11/23 05:26:05;;;;;;;41.50;22.10;;;3.80;99.90;;;;;;4999278;28;20069;-67
2022/11/23 05:28:31;;;;;;;38.65;21.65;;;3.80;99.90;;;;;;5000829;28;20497;-67
2022/11/23 05:30:57;;;;;;;34.67;21.27;;;3.80;99.90;;;;;;5000066;28;20061;-67
2022/11/23 05:33:24;;;;;;;34.08;19.08;;;3.80;99.90;;;;;;4999939;28;20166;-68
2022/11/23 05:35:50;;;;;;;30.25;19.13;;;3.80;99.90;;;;;;5001246;28;20042;-68
2022/11/23 05:38:16;;;;;;;36.83;20.63;;;3.80;99.90;;;;;;5000646;28;20037;-67
2022/11/23 05:40:43;;;;;;;38.15;22.77;;;3.90;99.90;;;;;;4999574;28;20025;-67
2022/11/23 05:43:09;;;;;;;36.85;20.58;;;3.90;99.90;;;;;;5001426;28;20042;-66
2022/11/23 05:45:35;;;;;;;32.90;19.30;;;3.80;99.90;;;;;;5000829;28;20096;-67
2022/11/23 05:48:01;;;;;;;30.23;19.90;;;3.90;99.90;;;;;;5003575;28;20045;-68
2022/11/23 05:50:28;;;;;;;36.88;22.27;;;3.90;99.90;;;;;;5000827;28;20400;-67
2022/11/23 05:52:57;;;;;;;36.85;21.48;;;3.90;99.90;;;;;;5001639;28;20045;-67
2022/11/23 05:55:24;;;;;;;35.80;21.35;;;3.90;99.90;;;;;;5001050;28;20584;-69
2022/11/23 05:57:49;;;;;;;34.17;19.30;;;3.90;99.90;;;;;;4999722;28;20119;-67
2022/11/23 06:00:16;;;;;;;31.65;18.80;;;3.90;99.90;;;;;;5002086;28;20810;-68
2022/11/23 06:02:41;;;;;;;33.78;19.65;;;3.90;99.90;;;;;;5001260;28;20034;-67
2022/11/23 06:05:07;;;;;;;33.17;19.85;;;3.90;99.90;;;;;;5000871;28;20029;-67
2022/11/23 06:07:33;;;;;;;36.22;19.90;;;3.90;99.90;;;;;;5000008;28;20541;-67
2022/11/23 06:10:00;;;;;;;34.50;18.80;;;4.00;99.90;;;;;;5000413;28;20612;-68
2022/11/23 06:12:27;;;;;;;32.25;19.90;;;4.00;99.90;;;;;;5004090;28;20053;-67
2022/11/23 06:14:52;;;;;;;32.88;20.33;;;4.00;99.90;;;;;;4999484;28;20042;-67
2022/11/23 06:17:18;;;;;;;34.60;19.38;;;4.00;99.90;;;;;;4999956;28;20034;-67
2022/11/23 06:19:43;;;;;;;34.05;19.77;;;4.00;99.90;;;;;;5001280;28;20030;-67
2022/11/23 06:22:09;;;;;;;30.85;18.48;;;4.10;99.90;;;;;;5001996;28;20389;-67
2022/11/23 06:24:35;;;;;;;31.30;18.95;;;4.00;99.90;;;;;;5000151;28;20030;-67
2022/11/23 06:27:00;;;;;;;36.88;20.05;;;4.00;99.90;;;;;;5001548;28;20603;-67
2022/11/23 06:29:26;;;;;;;32.55;19.45;;;4.00;99.90;;;;;;5000000;28;20052;-67
2022/11/23 06:31:51;;;;;;;30.58;18.25;;;4.00;99.90;;;;;;5000369;28;20041;-67
2022/11/23 06:34:17;;;;;;;28.35;17.85;;;4.00;99.90;;;;;;5001047;28;20034;-67
2022/11/23 06:36:43;;;;;;;34.17;20.38;;;4.00;99.90;;;;;;4999532;28;20060;-68
2022/11/23 06:39:09;;;;;;;30.52;18.33;;;3.90;99.90;;;;;;5015158;28;20041;-68
2022/11/23 06:41:35;;;;;;;32.45;19.48;;;3.90;99.90;;;;;;4998681;28;20116;-68
2022/11/23 06:44:01;;;;;;;30.70;20.02;;;3.90;99.90;;;;;;5001106;28;20037;-68
2022/11/23 06:46:27;;;;;;;33.03;18.98;;;3.90;99.90;;;;;;5001081;28;20125;-68
2022/11/23 06:48:52;;;;;;;35.58;20.25;;;3.90;99.90;;;;;;4999627;28;20026;-68
2022/11/23 06:51:19;;;;;;;32.30;18.42;;;3.90;99.90;;;;;;5001340;28;20029;-68
2022/11/23 06:53:45;;;;;;;35.40;18.95;;;3.90;99.90;;;;;;5001409;28;20044;-68
2022/11/23 06:56:12;;;;;;;34.72;19.17;;;3.80;99.90;;;;;;4998462;28;20033;-68
2022/11/23 06:58:38;;;;;;;32.20;19.20;;;3.80;99.90;;;;;;5001889;28;20057;-68
2022/11/23 07:01:06;;;;;;;32.28;19.65;;;3.80;99.90;;;;;;5007572;28;20026;-67
2022/11/23 07:03:32;;;;;;;33.25;19.30;;;3.80;99.90;;;;;;5005849;28;20489;-67
2022/11/23 07:05:58;;;;;;;36.38;19.75;;;3.90;99.90;;;;;;5005809;28;20034;-68
2022/11/23 07:08:24;;;;;;;33.47;20.80;;;3.80;99.90;;;;;;5003359;28;20025;-68
2022/11/23 07:10:49;;;;;;;31.63;19.80;;;3.80;99.90;;;;;;5007488;28;20036;-68
2022/11/23 07:13:15;;;;;;;34.00;18.67;;;3.80;99.90;;;;;;5003657;28;20032;-67
2022/11/23 07:15:41;;;;;;;31.52;19.48;;;3.70;99.90;;;;;;5005841;28;20069;-68
2022/11/23 07:18:10;;;;;;;31.85;19.60;;;3.80;99.90;;;;;;5003112;28;20053;-67
2022/11/23 07:20:36;;;;;;;33.40;18.98;;;3.70;99.90;;;;;;5003776;28;20041;-68
2022/11/23 07:23:04;;;;;;;29.67;17.75;;;3.70;99.90;;;;;;5004826;28;20177;-67
2022/11/23 07:25:31;;;;;;;33.15;18.50;;;3.70;99.90;;;;;;4994005;28;20441;-66
2022/11/23 07:27:58;;;;;;;32.53;18.67;;;3.70;99.90;;;;;;5004901;28;20044;-67
2022/11/23 07:30:25;;;;;;;36.40;20.48;;;3.70;99.90;;;;;;5004207;28;20046;-66
2022/11/23 07:32:52;;;;;;;31.40;18.67;;;3.70;99.90;;;;;;5002748;28;20121;-66
2022/11/23 07:35:18;;;;;;;36.30;20.30;;;3.70;99.90;;;;;;5002832;28;20120;-65
2022/11/23 07:37:45;;;;;;;34.25;18.40;;;3.70;99.90;;;;;;5002042;28;20029;-65
2022/11/23 07:40:13;;;;;;;29.67;18.92;;;3.70;99.90;;;;;;5003653;28;20030;-66
2022/11/23 07:42:39;;;;;;;32.53;18.85;;;3.70;99.90;;;;;;5003275;28;20033;-65
2022/11/23 07:45:05;;;;;;;36.33;19.98;;;3.70;99.90;;;;;;5002121;28;20057;-65
2022/11/23 07:47:31;;;;;;;35.70;21.55;;;3.70;99.90;;;;;;5005759;28;20028;-66
2022/11/23 07:49:57;;;;;;;34.70;19.58;;;3.70;99.90;;;;;;5003492;28;20050;-66
2022/11/23 07:52:23;;;;;;;33.13;19.17;;;3.70;99.90;;;;;;5003154;28;20038;-65
2022/11/23 07:54:49;;;;;;;43.25;19.48;;;3.70;99.90;;;;;;5001203;28;20072;-65
2022/11/23 07:57:14;;;;;;;35.08;18.30;;;3.70;99.90;;;;;;5004731;28;20052;-66
2022/11/23 07:59:40;;;;;;;34.22;19.25;;;3.70;99.90;;;;;;5005469;28;20750;-66
2022/11/23 08:02:12;;;;;;;36.50;18.50;;;3.70;99.90;;;;;;5003711;28;20031;-66
2022/11/23 08:04:38;;;;;;;33.30;19.70;;;3.70;99.90;;;;;;5003738;28;20022;-65
2022/11/23 08:07:04;;;;;;;36.45;20.70;;;3.70;99.90;;;;;;5002836;28;20026;-66
2022/11/23 08:09:29;;;;;;;33.38;19.50;;;3.80;99.90;;;;;;5006348;28;20580;-66
2022/11/23 08:11:56;;;;;;;32.75;18.55;;;3.80;99.90;;;;;;5003416;28;20029;-65
2022/11/23 08:14:22;;;;;;;30.25;18.60;;;3.80;99.90;;;;;;5001993;28;20037;-66
2022/11/23 08:16:52;;;;;;;31.67;18.42;;;3.80;99.90;;;;;;5003508;28;20332;-67
2022/11/23 08:19:17;;;;;;;37.70;18.98;;;3.80;99.90;;;;;;5000758;28;20128;-65
2022/11/23 08:21:44;;;;;;;34.53;19.67;;;3.90;99.90;;;;;;4999360;28;20121;-66
2022/11/23 08:24:10;;;;;;;33.78;19.50;;;3.90;99.90;;;;;;5002268;28;20030;-64
2022/11/23 08:26:36;;;;;;;29.40;19.10;;;3.90;99.90;;;;;;4999483;28;20117;-64
2022/11/23 08:29:02;;;;;;;31.73;17.75;;;4.00;99.90;;;;;;5001061;28;20117;-64
2022/11/23 08:31:28;;;;;;;30.08;19.25;;;4.00;99.90;;;;;;5004654;28;20088;-65
2022/11/23 08:33:54;;;;;;;35.22;18.45;;;4.00;99.90;;;;;;5005792;28;20026;-66
2022/11/23 08:36:20;;;;;;;33.75;18.95;;;4.10;99.90;;;;;;5000467;28;20042;-66
2022/11/23 08:38:45;;;;;;;34.17;18.98;;;4.20;99.90;;;;;;5001203;28;20030;-66
2022/11/23 08:41:11;;;;;;;32.83;19.38;;;4.20;99.90;;;;;;5001278;28;20057;-66
2022/11/23 08:43:37;;;;;;;29.45;17.17;;;4.30;99.90;;;;;;5001630;28;20157;-65
2022/11/23 08:46:05;;;;;;;34.40;19.73;;;4.40;99.90;;;;;;4999563;28;20513;-65
2022/11/23 08:48:31;;;;;;;30.23;18.27;;;4.40;99.90;;;;;;5002378;28;20021;-66
2022/11/23 08:51:01;;;;;;;33.63;18.63;;;4.50;99.90;;;;;;5002310;28;20053;-67
2022/11/23 08:53:26;;;;;;;33.85;18.67;;;4.60;99.90;;;;;;4999920;28;20021;-66
2022/11/23 08:55:52;;;;;;;32.95;19.85;;;4.60;99.90;;;;;;5001251;28;20034;-66
2022/11/23 08:58:18;;;;;;;30.00;17.48;;;4.70;99.90;;;;;;5016239;28;20033;-66
2022/11/23 09:00:43;;;;;;;34.80;19.23;;;4.70;99.90;;;;;;4999602;28;20121;-67
2022/11/23 09:03:09;;;;;;;27.98;18.33;;;4.80;99.90;;;;;;5001410;28;20096;-66
2022/11/23 09:05:38;;;;;;;29.77;17.85;;;4.90;99.90;;;;;;5002051;28;20042;-66
2022/11/23 09:08:03;;;;;;;31.52;18.20;;;5.00;99.90;;;;;;4998726;28;20054;-67
2022/11/23 09:10:29;;;;;;;33.20;19.48;;;5.00;99.90;;;;;;4996751;28;20042;-66
2022/11/23 09:12:57;;;;;;;29.38;18.27;;;5.10;99.90;;;;;;5002747;28;20026;-66
2022/11/23 09:15:23;;;;;;;28.17;18.42;;;5.10;99.90;;;;;;5001251;28;20033;-66
2022/11/23 09:17:50;;;;;;;33.25;19.70;;;5.10;99.90;;;;;;5000865;28;20041;-66
2022/11/23 09:20:17;;;;;;;32.58;19.00;;;5.20;99.90;;;;;;4998711;28;20033;-66
2022/11/23 09:22:43;;;;;;;30.90;17.70;;;5.20;99.90;;;;;;5000430;28;20760;-67
2022/11/23 09:25:09;;;;;;;25.60;16.85;;;5.30;99.90;;;;;;5003862;28;20037;-66
2022/11/23 09:27:35;;;;;;;27.58;17.17;;;5.30;99.90;;;;;;5002265;28;20026;-67
2022/11/23 09:30:01;;;;;;;29.73;17.13;;;5.30;99.90;;;;;;5003392;28;20060;-66
2022/11/23 09:32:30;;;;;;;29.70;17.60;;;5.40;99.90;;;;;;5001713;28;20029;-67
2022/11/23 09:34:57;;;;;;;32.00;18.40;;;5.40;99.90;;;;;;5002112;28;20061;-66
2022/11/23 09:37:22;;;;;;;28.13;17.05;;;5.40;99.90;;;;;;4999243;28;22239;-67
2022/11/23 09:39:48;;;;;;;26.38;16.83;;;5.50;99.90;;;;;;5001329;28;20048;-67
2022/11/23 09:42:20;;;;;;;24.10;15.82;;;5.50;99.90;;;;;;5001021;28;20587;-66
2022/11/23 09:45:13;;;;;;;25.70;16.10;;;5.50;99.90;;;;;;5072344;27;20921;-66
2022/11/23 09:47:53;;;;;;;25.08;15.40;;;5.50;99.90;;;;;;5057002;28;20031;-64
2022/11/23 09:50:21;;;;;;;25.77;16.05;;;5.50;99.90;;;;;;5056114;28;20025;-64
2022/11/23 09:52:50;;;;;;;27.75;16.83;;;5.60;99.90;;;;;;5056583;28;20033;-65
2022/11/23 09:55:16;;;;;;;29.75;17.42;;;5.60;99.90;;;;;;5056863;28;20877;-66
2022/11/23 09:57:45;;;;;;;26.45;16.17;;;5.60;99.90;;;;;;5052846;28;20131;-65
2022/11/23 10:00:21;;;;;;;22.13;15.30;;;5.70;99.90;;;;;;5033602;28;20407;-66
2022/11/23 10:02:47;;;;;;;26.02;16.05;;;5.70;99.90;;;;;;5052799;28;20064;-65
2022/11/23 10:05:25;;;;;;;25.90;15.35;;;5.70;99.90;;;;;;5048587;28;20083;-66
2022/11/23 10:08:09;;;;;;;24.17;14.57;;;5.70;99.90;;;;;;5052646;28;20094;-68
2022/11/23 10:10:42;;;;;;;25.10;15.98;;;5.70;99.90;;;;;;5048107;28;20040;-66
2022/11/23 10:13:23;;;;;;;30.75;17.63;;;5.80;99.90;;;;;;5056051;28;20122;-67
2022/11/23 10:16:16;;;;;;;24.02;14.90;;;5.80;99.90;;;;;;5050344;28;22241;-67
2022/11/23 10:18:45;;;;;;;24.33;14.35;;;5.90;99.90;;;;;;5049549;28;20036;-67
2022/11/23 10:21:18;;;;;;;29.58;15.63;;;5.90;99.90;;;;;;5050072;28;20026;-67
2022/11/23 10:23:47;;;;;;;22.20;15.07;;;6.00;99.90;;;;;;5053825;28;20557;-67
2022/11/23 10:26:16;;;;;;;29.17;16.05;;;6.00;99.90;;;;;;5051790;28;20052;-68
2022/11/23 10:28:45;;;;;;;27.75;15.85;;;6.10;99.90;;;;;;5049905;28;20032;-67
2022/11/23 10:31:20;;;;;;;26.63;15.40;;;6.10;99.90;;;;;;5051441;28;20032;-67
2022/11/23 10:34:10;;;;;;;26.95;15.55;;;6.10;99.90;;;;;;5050223;28;20037;-67
2022/11/23 10:36:38;;;;;;;24.83;15.77;;;6.20;99.90;;;;;;5038695;28;20111;-67
2022/11/23 10:39:23;;;;;;;28.33;16.50;;;6.20;99.90;;;;;;5048471;28;20114;-67
2022/11/23 10:41:58;;;;;;;24.55;15.77;;;6.20;99.90;;;;;;5051221;28;20048;-67
2022/11/23 10:44:37;;;;;;;27.30;15.35;;;6.30;99.90;;;;;;5049329;28;20053;-67
2022/11/23 10:47:04;;;;;;;25.65;15.57;;;6.30;99.90;;;;;;5052386;28;20488;-67
2022/11/23 10:49:32;;;;;;;26.65;16.20;;;6.40;99.90;;;;;;5050543;28;20026;-67
2022/11/23 10:51:57;;;;;;;27.60;16.73;;;6.50;99.90;;;;;;5052288;28;20029;-67
2022/11/23 10:54:36;;;;;;;27.88;16.15;;;6.50;99.90;;;;;;5029727;28;20032;-66
2022/11/23 10:57:26;;;;;;;24.63;15.25;;;6.50;99.90;;;;;;5038002;28;20056;-67
2022/11/23 11:00:13;;;;;;;26.13;14.93;;;6.50;99.90;;;;;;5031773;28;20548;-67
2022/11/23 11:02:51;;;;;;;24.38;15.65;;;6.60;99.90;;;;;;5038036;28;20037;-67
2022/11/23 11:05:37;;;;;;;28.85;16.55;;;6.60;99.90;;;;;;5038093;28;20029;-67
2022/11/23 11:08:16;;;;;;;22.23;14.85;;;6.70;99.90;;;;;;5036536;28;20083;-67
2022/11/23 11:10:48;;;;;;;23.35;14.82;;;6.70;99.90;;;;;;5035175;28;20127;-67
2022/11/23 11:13:44;;;;;;;27.98;16.08;;;6.70;99.90;;;;;;5042406;28;20018;-67
2022/11/23 11:16:21;;;;;;;25.38;16.02;;;6.80;99.90;;;;;;5038627;28;20063;-67
2022/11/23 11:18:47;;;;;;;24.27;15.27;;;6.80;99.90;;;;;;5033808;28;20092;-67
2022/11/23 11:21:32;;;;;;;29.65;17.15;;;6.80;99.90;;;;;;5039184;28;20029;-67
2022/11/23 11:24:04;;;;;;;26.80;16.00;;;6.90;99.90;;;;;;5037471;28;20041;-66
2022/11/23 11:26:32;;;;;;;28.13;15.90;;;7.00;99.90;;;;;;5037428;28;20120;-67
2022/11/23 11:29:01;;;;;;;28.27;15.35;;;7.10;99.90;;;;;;5036804;28;20087;-67
2022/11/23 11:31:57;;;;;;;22.85;13.98;;;7.10;99.90;;;;;;5036280;28;20542;-67
2022/11/23 11:34:25;;;;;;;21.90;13.45;;;7.20;99.90;;;;;;5034939;28;20056;-66
2022/11/23 11:37:12;;;;;;;22.30;14.00;;;7.30;99.90;;;;;;5038482;28;20052;-66
2022/11/23 11:39:49;;;;;;;32.65;13.27;;;7.30;99.90;;;;;;5034583;28;20438;-67
2022/11/23 11:42:39;;;;;;;23.45;14.23;;;7.40;99.90;;;;;;5034654;28;20530;-67
2022/11/23 11:45:12;;;;;;;22.63;14.32;;;7.40;99.90;;;;;;5000145;28;20148;-67
2022/11/23 11:47:44;;;;;;;20.73;13.20;;;7.50;99.90;;;;;;4997804;28;20034;-68
2022/11/23 11:50:26;;;;;;;20.95;12.82;;;7.50;99.90;;;;;;4994218;28;20630;-68
2022/11/23 11:52:58;;;;;;;22.02;13.18;;;7.60;99.90;;;;;;4996259;28;20030;-68
2022/11/23 11:55:32;;;;;;;22.25;15.05;;;7.70;99.90;;;;;;4998235;28;20022;-68
2022/11/23 11:58:09;;;;;;;23.20;13.35;;;7.70;99.90;;;;;;4998372;28;21966;-68
2022/11/23 12:00:37;;;;;;;22.85;13.20;;;7.80;99.90;;;;;;4995697;28;20077;-67
2022/11/23 12:03:37;;;;;;;20.50;13.63;;;7.90;99.90;;;;;;4994249;28;20046;-66
2022/11/23 12:06:14;;;;;;;21.48;13.38;;;7.90;99.90;;;;;;4986430;28;20430;-66
2022/11/23 12:09:00;;;;;;;19.38;12.45;;;8.00;99.90;;;;;;4997344;28;20367;-67
2022/11/23 12:11:26;;;;;;;22.90;14.10;;;8.10;99.90;;;;;;4995670;28;20030;-67
2022/11/23 12:13:59;;;;;;;21.17;12.77;;;8.10;99.90;;;;;;4994949;28;20565;-67
2022/11/23 12:16:50;;;;;;;24.17;14.15;;;8.20;99.90;;;;;;5000683;28;20065;-67
2022/11/23 12:19:45;;;;;;;19.40;13.73;;;8.20;99.90;;;;;;4994625;28;20034;-67
2022/11/23 12:22:43;;;;;;;20.10;13.77;;;8.30;99.90;;;;;;4994054;28;20045;-67
2022/11/23 12:25:13;;;;;;;21.73;14.05;;;8.30;99.90;;;;;;4993337;28;20413;-67
2022/11/23 12:28:21;;;;;;;21.50;13.98;;;8.30;99.90;;;;;;4995328;28;20072;-66
2022/11/23 12:31:17;;;;;;;23.10;15.20;;;8.30;99.90;;;;;;4995217;28;20508;-67
2022/11/23 12:33:49;;;;;;;;;;;8.30;99.90;;;;;;4996054;28;20041;-67
2022/11/23 12:36:39;;;;;;;18.52;12.40;;;8.30;99.90;;;;;;4996693;28;19952;-67
2022/11/23 12:39:23;;;;;;;21.17;13.23;;;8.30;99.90;;;;;;4994870;28;20073;-67
2022/11/23 12:42:27;;;;;;;20.40;12.93;;;8.30;99.90;;;;;;4994213;28;20073;-67
2022/11/23 12:45:30;;;;;;;19.65;12.25;;;8.30;99.90;;;;;;4980139;28;20156;-66
2022/11/23 12:48:21;;;;;;;19.25;12.35;;;8.30;99.90;;;;;;4997659;28;20025;-67
2022/11/23 12:51:05;;;;;;;19.83;14.05;;;8.30;99.90;;;;;;4957064;28;21831;-66